Time;durP1;ratioP1;P1;durP2;ratioP2;P2;SDS_P1;SDS_P2;PMS_P1;PMS_P2;Temp;Humidity;BMP_temperature;BMP_pressure;BME280_temperature;BME280_humidity;BME280_pressure;Samples;Min_cycle;Max_cycle;Signal;HPM_P1;HPM_P2
2022/08/13 00:00:00;;;;;;;25.57;23.10;;;;;;;18.26;91.24;99100.17;2211273;81;20964;-82
2022/08/13 00:02:59;;;;;;;23.62;21.23;;;;;;;18.24;91.48;99096.68;2211750;81;20945;-82
2022/08/13 00:06:02;;;;;;;23.27;20.88;;;;;;;18.22;91.60;99094.51;2211738;81;20928;-82
2022/08/13 00:09:04;;;;;;;22.60;20.05;;;;;;;18.21;91.61;99091.44;2211826;81;21347;-83
2022/08/13 00:15:20;;;;;;;22.27;20.17;;;;;;;18.24;93.06;99090.08;2212172;81;20993;-82
2022/08/13 00:18:20;;;;;;;21.80;19.80;;;;;;;18.20;92.65;99092.75;2211848;81;20992;-83
2022/08/13 00:21:21;;;;;;;21.65;19.62;;;;;;;18.30;93.79;99085.14;2212243;81;20968;-82
2022/08/13 00:24:21;;;;;;;21.45;19.17;;;;;;;18.38;93.15;99086.77;2212003;81;20936;-82
2022/08/13 00:27:22;;;;;;;20.20;18.27;;;;;;;18.50;94.02;99080.41;2212084;81;20968;-83
2022/08/13 00:30:21;;;;;;;19.92;17.95;;;;;;;18.64;93.78;99074.94;2211973;81;20980;-83
2022/08/13 00:33:22;;;;;;;20.70;18.77;;;;;;;18.61;92.66;99070.98;2211985;81;20960;-81
2022/08/13 00:36:23;;;;;;;20.75;18.62;;;;;;;18.48;93.14;99064.16;2211807;81;20932;-81
2022/08/13 00:39:23;;;;;;;18.15;16.30;;;;;;;18.43;93.30;99063.78;2211942;81;20957;-82
2022/08/13 00:42:23;;;;;;;19.23;17.52;;;;;;;18.35;94.56;99066.13;2212453;81;20968;-82
2022/08/13 00:45:23;;;;;;;18.27;16.65;;;;;;;18.46;94.33;99064.19;2212265;81;20952;-82
2022/08/13 00:48:42;;;;;;;20.52;18.62;;;;;;;18.53;93.97;99063.63;2212227;81;21030;-82
2022/08/13 00:51:44;;;;;;;18.42;16.48;;;;;;;18.45;93.84;99061.12;2212057;81;20948;-83
2022/08/13 00:54:43;;;;;;;18.95;17.23;;;;;;;18.32;93.92;99060.89;2212403;81;21284;-83
2022/08/13 00:57:44;;;;;;;19.10;17.23;;;;;;;18.22;94.23;99061.48;2212037;81;21323;-82
2022/08/13 01:00:46;;;;;;;20.52;18.45;;;;;;;18.34;96.07;99054.68;2210884;81;20964;-82
2022/08/13 01:03:44;;;;;;;21.35;18.40;;;;;;;18.37;95.05;99050.67;2211344;81;20952;-82
2022/08/13 01:06:45;;;;;;;16.73;15.23;;;;;;;18.25;94.77;99052.19;2211482;81;21027;-82
2022/08/13 01:09:45;;;;;;;17.65;16.05;;;;;;;18.21;94.95;99051.81;2211818;81;21041;-82
2022/08/13 01:12:45;;;;;;;18.75;16.85;;;;;;;18.65;97.34;99046.27;2211980;81;20976;-81
2022/08/13 01:15:46;;;;;;;17.35;15.75;;;;;;;18.95;95.37;99040.87;2212348;81;20984;-81
2022/08/13 01:18:46;;;;;;;16.17;14.73;;;;;;;19.35;95.68;99034.38;2212152;81;20980;-82
2022/08/13 01:21:46;;;;;;;18.55;16.75;;;;;;;19.88;93.68;99025.77;2212486;81;20996;-81
2022/08/13 01:24:47;;;;;;;19.70;17.27;;;;;;;19.70;89.42;99025.72;2212271;81;20894;-82
2022/08/13 01:27:47;;;;;;;18.27;16.45;;;;;;;19.29;89.52;99019.95;2212220;81;20897;-82
2022/08/13 01:30:49;;;;;;;19.25;17.48;;;;;;;18.97;90.88;99020.56;2212213;81;20901;-82
2022/08/13 01:33:48;;;;;;;18.42;16.82;;;;;;;18.78;91.73;99015.61;2212097;81;20889;-81
2022/08/13 01:36:49;;;;;;;19.80;17.62;;;;;;;18.61;92.15;99012.82;2212253;81;20953;-81
2022/08/13 01:39:50;;;;;;;19.27;17.52;;;;;;;18.51;92.74;99007.27;2212239;81;21004;-82
2022/08/13 01:42:50;;;;;;;19.57;17.87;;;;;;;18.42;93.24;99008.30;2212047;81;21335;-81
2022/08/13 01:45:49;;;;;;;20.77;18.77;;;;;;;18.33;93.70;99009.78;2212035;81;20956;-82
2022/08/13 01:52:09;;;;;;;20.82;18.77;;;;;;;18.19;94.69;99000.73;2211855;81;21009;-81
2022/08/13 01:55:10;;;;;;;22.55;20.35;;;;;;;18.19;95.66;99004.70;2211901;81;20889;-82
2022/08/13 01:58:10;;;;;;;21.05;19.07;;;;;;;18.09;95.81;99003.09;2212032;81;20971;-82
2022/08/13 02:01:10;;;;;;;21.12;19.20;;;;;;;18.01;95.94;98998.38;2212100;81;20952;-82
2022/08/13 02:04:13;;;;;;;21.77;19.77;;;;;;;18.01;96.56;99004.98;2212100;81;21300;-82
2022/08/13 02:07:14;;;;;;;20.80;18.87;;;;;;;17.97;96.85;99004.16;2212388;81;20908;-82
2022/08/13 02:10:15;;;;;;;23.47;20.95;;;;;;;18.00;97.43;99004.56;2212165;81;20955;-81
2022/08/13 02:13:15;;;;;;;21.52;19.52;;;;;;;17.97;98.16;98997.56;2211928;81;21502;-82
2022/08/13 02:16:15;;;;;;;22.90;20.90;;;;;;;17.90;98.32;99006.47;2211913;80;21121;-81
2022/08/13 02:19:15;;;;;;;22.32;20.12;;;;;;;17.88;99.05;99002.11;2211637;81;21027;-81
2022/08/13 02:22:17;;;;;;;24.92;22.42;;;;;;;17.96;99.25;98997.58;2212091;81;20987;-81
2022/08/13 02:25:16;;;;;;;23.47;20.68;;;;;;;17.95;99.46;98994.52;2212343;81;20928;-82
2022/08/13 02:28:18;;;;;;;21.87;19.87;;;;;;;18.07;99.53;99004.44;2212555;81;20965;-82
2022/08/13 02:31:21;;;;;;;22.58;20.10;;;;;;;18.12;98.25;99002.60;2213062;81;20897;-81
2022/08/13 02:34:18;;;;;;;24.92;20.17;;;;;;;18.05;98.05;98994.80;2212493;81;20936;-82
2022/08/13 02:37:21;;;;;;;23.07;20.60;;;;;;;18.13;99.43;98991.14;2212197;81;20928;-82
2022/08/13 02:43:42;;;;;;;21.87;19.67;;;;;;;18.05;99.18;98984.23;2189036;81;20992;-82
2022/08/13 02:46:40;;;;;;;22.58;20.27;;;;;;;18.21;100.00;98987.53;2212076;81;20933;-81
2022/08/13 02:49:41;;;;;;;23.70;21.30;;;;;;;18.35;98.95;98983.75;2211909;81;21024;-83
2022/08/13 02:52:40;;;;;;;21.37;19.48;;;;;;;18.54;99.36;98978.14;2212087;81;20936;-81
2022/08/13 02:55:44;;;;;;;22.20;20.05;;;;;;;18.48;97.46;98976.94;2212129;81;20944;-82
2022/08/13 02:58:41;;;;;;;23.07;20.77;;;;;;;18.27;97.05;98971.13;2211905;81;21351;-81
2022/08/13 03:01:42;;;;;;;22.85;19.52;;;;;;;18.14;98.08;98973.52;2212145;81;20977;-82
2022/08/13 03:04:42;;;;;;;24.35;22.10;;;;;;;18.06;98.11;98969.68;2212188;81;20948;-82
2022/08/13 03:07:43;;;;;;;22.82;20.52;;;;;;;18.20;99.46;98976.05;2212071;81;20932;-83
2022/08/13 03:10:43;;;;;;;24.15;21.90;;;;;;;18.31;99.00;98970.63;2212082;81;21304;-83
2022/08/13 03:13:43;;;;;;;23.25;21.05;;;;;;;18.27;98.70;98965.84;2212022;81;20886;-83
2022/08/13 03:16:44;;;;;;;23.75;21.42;;;;;;;18.16;98.63;98969.08;2212119;80;20984;-83
2022/08/13 03:19:44;;;;;;;23.42;21.10;;;;;;;18.10;99.23;98963.90;2211740;81;21074;-83
2022/08/13 03:22:44;;;;;;;25.12;22.50;;;;;;;18.14;100.00;98962.95;2212163;81;20956;-83
2022/08/13 03:25:45;;;;;;;23.75;21.52;;;;;;;18.13;99.65;98964.72;2211641;81;20920;-83
2022/08/13 03:28:46;;;;;;;24.30;21.87;;;;;;;18.11;100.00;98965.19;2211728;81;20936;-84
2022/08/13 03:31:48;;;;;;;25.97;23.45;;;;;;;18.18;99.94;98960.67;2212532;81;20952;-84
2022/08/13 03:34:48;;;;;;;24.45;22.13;;;;;;;18.19;99.82;98955.82;2212121;81;20905;-84
2022/08/13 03:37:49;;;;;;;26.62;23.90;;;;;;;18.12;100.00;98958.14;2212174;81;20972;-84
2022/08/13 03:41:02;;;;;;;26.42;23.62;;;;;;;18.03;100.00;98965.77;2212080;81;21023;-83
2022/08/13 03:44:05;;;;;;;27.40;24.57;;;;;;;18.00;100.00;98965.81;2212291;81;21044;-84
2022/08/13 03:47:05;;;;;;;27.37;24.65;;;;;;;17.97;100.00;98963.67;2212145;81;21021;-85
2022/08/13 03:50:08;;;;;;;27.48;24.80;;;;;;;18.06;100.00;98967.48;2211877;81;20988;-83
2022/08/13 03:53:09;;;;;;;29.40;26.37;;;;;;;18.01;100.00;98974.61;2212101;81;20964;-83
2022/08/13 03:56:09;;;;;;;27.82;24.92;;;;;;;17.92;100.00;98969.48;2211393;81;21339;-83
2022/08/13 03:59:09;;;;;;;30.57;25.30;;;;;;;17.95;100.00;98974.71;2211635;81;21007;-84
2022/08/13 04:02:11;;;;;;;33.20;29.15;;;;;;;18.00;100.00;98974.19;2211809;81;20948;-84
2022/08/13 04:05:22;;;;;;;31.85;26.68;;;;;;;18.08;100.00;98976.26;2212148;81;20952;-83
2022/08/13 04:08:13;;;;;;;28.95;25.85;;;;;;;18.20;100.00;98983.98;2212338;81;20933;-82
2022/08/13 04:11:13;;;;;;;32.85;29.25;;;;;;;18.32;100.00;98982.94;2211316;81;20949;-83
2022/08/13 04:14:14;;;;;;;31.48;27.75;;;;;;;18.46;100.00;98978.28;2211041;81;21399;-82
2022/08/13 04:17:15;;;;;;;33.40;28.32;;;;;;;18.35;100.00;98978.47;2210631;81;20965;-82
2022/08/13 04:20:15;;;;;;;33.05;27.95;;;;;;;18.28;100.00;98972.87;2210116;81;21012;-82
2022/08/13 04:23:16;;;;;;;34.80;28.98;;;;;;;18.26;100.00;98975.98;2209375;80;20996;-82
2022/08/13 04:26:16;;;;;;;41.10;32.08;;;;;;;18.17;100.00;98974.78;2209429;81;21409;-83
2022/08/13 04:29:16;;;;;;;39.98;30.75;;;;;;;18.19;100.00;98974.31;2209936;81;20967;-82
2022/08/13 04:32:19;;;;;;;41.10;33.08;;;;;;;18.22;100.00;98979.58;2210267;81;20960;-84
2022/08/13 04:35:17;;;;;;;41.98;33.95;;;;;;;18.29;100.00;98973.30;2210619;81;21288;-83
2022/08/13 04:38:17;;;;;;;38.95;31.02;;;;;;;18.30;100.00;98981.64;2211505;81;21375;-83
2022/08/13 04:41:17;;;;;;;40.52;33.48;;;;;;;18.49;100.00;98980.88;2210151;81;20952;-82
2022/08/13 04:44:18;;;;;;;41.23;32.75;;;;;;;18.52;100.00;98985.23;2209498;81;20956;-81
2022/08/13 04:47:18;;;;;;;43.30;34.50;;;;;;;18.54;100.00;98980.78;2209592;81;20980;-81
2022/08/13 04:50:19;;;;;;;46.55;35.78;;;;;;;18.50;100.00;98980.42;2209415;81;21046;-82
2022/08/13 04:53:19;;;;;;;46.58;35.03;;;;;;;18.66;100.00;98988.08;2209323;81;20957;-82
2022/08/13 04:56:19;;;;;;;50.17;37.40;;;;;;;18.58;100.00;98976.73;2211695;81;20913;-83
2022/08/13 04:59:22;;;;;;;43.65;35.03;;;;;;;18.79;100.00;98983.43;2212187;81;21380;-83
2022/08/13 05:02:23;;;;;;;48.08;33.20;;;;;;;18.80;100.00;98981.66;2211904;81;20964;-83
2022/08/13 05:05:24;;;;;;;50.05;35.43;;;;;;;18.82;100.00;98983.82;2211444;81;20944;-83
2022/08/13 05:08:23;;;;;;;47.93;33.38;;;;;;;18.98;100.00;98976.88;2211943;81;20928;-82
2022/08/13 05:11:24;;;;;;;56.15;34.92;;;;;;;18.97;100.00;98975.59;2211814;81;21332;-82
2022/08/13 05:14:24;;;;;;;50.00;34.15;;;;;;;18.93;100.00;98981.84;2210417;81;20967;-83
2022/08/13 05:17:25;;;;;;;50.28;32.70;;;;;;;19.06;100.00;98979.37;2211920;80;21541;-82
2022/08/13 05:20:25;;;;;;;46.02;31.82;;;;;;;19.27;100.00;98978.09;2220616;80;21051;-84
2022/08/13 05:23:25;;;;;;;43.40;30.00;;;;;;;19.21;99.83;98980.87;2220534;80;21256;-82
2022/08/13 05:26:26;;;;;;;42.88;31.23;;;;;;;19.25;100.00;98973.28;2221130;80;20987;-83
2022/08/13 05:29:26;;;;;;;42.43;30.90;;;;;;;19.46;99.54;98983.41;2222048;80;20970;-81
2022/08/13 05:32:29;;;;;;;42.70;29.30;;;;;;;19.33;98.50;98982.80;2222108;80;20932;-81
2022/08/13 05:35:27;;;;;;;42.88;30.35;;;;;;;19.13;98.58;98980.16;2221992;80;20995;-82
2022/08/13 05:38:27;;;;;;;43.85;29.80;;;;;;;19.11;99.61;98976.66;2220324;80;21002;-82
2022/08/13 05:41:28;;;;;;;43.17;28.60;;;;;;;19.08;99.21;98977.60;2220390;80;21023;-82
2022/08/13 05:44:28;;;;;;;35.83;28.00;;;;;;;19.17;99.54;98980.51;2220626;80;20963;-82
2022/08/13 05:47:28;;;;;;;41.80;28.67;;;;;;;19.24;100.00;98970.22;2220053;80;21014;-83
2022/08/13 05:50:31;;;;;;;33.95;25.30;;;;;;;19.51;100.00;98974.05;2219278;80;21078;-83
2022/08/13 05:53:29;;;;;;;39.48;26.30;;;;;;;19.67;99.48;98975.02;2220030;80;20987;-83
2022/08/13 05:56:32;;;;;;;34.10;26.85;;;;;;;19.95;98.65;98973.09;2219847;80;21586;-83
2022/08/13 06:06:14;;;;;;;29.72;23.47;;;;;;;20.54;95.38;98968.09;2220250;80;21355;-83
2022/08/13 06:09:14;;;;;;;33.70;24.95;;;;;;;20.58;93.72;98965.32;2221137;80;20952;-84
2022/08/13 06:12:14;;;;;;;28.42;22.32;;;;;;;20.67;93.19;98958.90;2222338;80;20932;-83
2022/08/13 06:15:15;;;;;;;27.67;21.10;;;;;;;20.74;92.93;98953.84;2222712;80;20964;-83
2022/08/13 06:18:15;;;;;;;31.75;21.17;;;;;;;20.95;92.46;98961.69;2222292;80;21011;-83
2022/08/13 06:21:15;;;;;;;28.98;21.23;;;;;;;21.07;91.37;98964.45;2221722;80;21374;-83
2022/08/13 06:24:17;;;;;;;24.10;20.23;;;;;;;21.11;90.89;98960.80;2222246;80;20877;-83
2022/08/13 06:27:16;;;;;;;23.60;19.45;;;;;;;21.30;90.88;98954.07;2221194;80;21012;-83
2022/08/13 06:30:18;;;;;;;25.23;19.02;;;;;;;21.50;89.79;98954.80;2222805;80;21296;-83
2022/08/13 06:33:20;;;;;;;20.90;18.67;;;;;;;21.71;88.84;98954.63;2222084;80;20932;-83
2022/08/13 06:36:17;;;;;;;22.50;19.67;;;;;;;21.79;87.92;98950.81;2222281;80;20964;-81
2022/08/13 06:39:18;;;;;;;21.93;19.67;;;;;;;21.89;87.38;98954.91;2220547;80;20959;-83
2022/08/13 06:42:18;;;;;;;20.53;18.03;;;;;;;21.77;86.67;98943.80;2220896;80;20968;-82
2022/08/13 06:45:20;;;;;;;21.77;19.25;;;;;;;21.80;87.25;98943.70;2220956;80;20928;-83
2022/08/13 06:48:19;;;;;;;21.57;17.20;;;;;;;21.84;86.31;98954.19;2220957;80;21881;-82
2022/08/13 06:51:20;;;;;;;20.08;18.02;;;;;;;21.88;86.83;98947.86;2220626;80;21051;-83
2022/08/13 06:54:21;;;;;;;19.75;17.67;;;;;;;21.96;86.28;98948.94;2221131;80;21007;-82
2022/08/13 06:57:22;;;;;;;18.98;16.97;;;;;;;21.98;86.22;98948.89;2222198;80;20909;-81
2022/08/13 07:00:25;;;;;;;20.68;16.82;;;;;;;22.08;85.48;98946.37;2221684;80;21059;-82
2022/08/13 07:03:22;;;;;;;18.40;16.50;;;;;;;22.18;85.44;98948.67;2221593;80;20972;-83
2022/08/13 07:06:23;;;;;;;18.15;16.35;;;;;;;22.32;84.84;98946.88;2221553;80;20984;-82
2022/08/13 07:09:22;;;;;;;20.50;18.17;;;;;;;22.43;84.22;98947.84;2222151;80;20940;-81
2022/08/13 07:12:22;;;;;;;21.20;19.00;;;;;;;22.51;83.11;98955.09;2221630;80;20936;-82
2022/08/13 07:15:23;;;;;;;18.62;16.73;;;;;;;22.03;82.44;98954.50;2221439;80;20999;-81
2022/08/13 07:18:23;;;;;;;19.87;17.67;;;;;;;21.64;83.89;98949.93;2220670;80;21052;-83
2022/08/13 07:21:24;;;;;;;19.80;17.73;;;;;;;21.46;84.67;98950.04;2220803;80;20936;-81
2022/08/13 07:24:26;;;;;;;18.17;16.32;;;;;;;21.29;85.91;98949.67;2222121;80;20904;-82
2022/08/13 07:27:24;;;;;;;19.65;17.80;;;;;;;21.23;87.50;98948.53;2222521;80;20936;-81
2022/08/13 07:30:25;;;;;;;19.73;17.70;;;;;;;21.11;86.74;98947.53;2220326;80;20976;-81
2022/08/13 07:33:25;;;;;;;18.35;16.65;;;;;;;21.09;87.56;98954.21;2220376;80;21015;-81
2022/08/13 07:36:27;;;;;;;18.90;17.05;;;;;;;21.16;87.68;98952.25;2220720;80;20983;-80
2022/08/13 07:39:26;;;;;;;18.85;17.00;;;;;;;21.20;87.77;98952.57;2219957;80;21046;-82
2022/08/13 07:42:27;;;;;;;18.75;17.00;;;;;;;21.20;87.89;98949.45;2219703;80;20998;-81
2022/08/13 07:45:27;;;;;;;20.55;18.40;;;;;;;21.32;87.51;98958.01;2219791;80;21042;-82
2022/08/13 07:48:27;;;;;;;19.77;17.82;;;;;;;21.42;87.23;98959.02;2219852;80;20995;-83
2022/08/13 07:51:27;;;;;;;17.00;15.38;;;;;;;21.48;87.69;98956.17;2219308;80;20995;-83
2022/08/13 07:54:28;;;;;;;17.07;15.40;;;;;;;21.84;88.55;98959.96;2219673;80;20951;-83
2022/08/13 07:57:28;;;;;;;15.78;14.15;;;;;;;22.38;87.46;98966.61;2219435;80;20979;-83
2022/08/13 08:00:29;;;;;;;15.78;14.18;;;;;;;22.75;85.41;98958.25;2219874;80;21080;-83
2022/08/13 08:03:30;;;;;;;13.80;12.47;;;;;;;23.15;84.10;98955.50;2220328;80;20983;-84
2022/08/13 08:06:30;;;;;;;14.58;13.08;;;;;;;23.44;82.91;98960.62;2221104;80;20940;-83
2022/08/13 08:09:30;;;;;;;13.62;12.45;;;;;;;23.71;81.32;98958.72;2221473;80;21296;-83
2022/08/13 08:12:32;;;;;;;15.30;13.43;;;;;;;23.96;80.34;98963.06;2220951;80;21031;-83
2022/08/13 08:15:31;;;;;;;14.47;13.20;;;;;;;24.09;79.13;98961.17;2221530;80;20937;-83
2022/08/13 08:18:32;;;;;;;13.35;12.05;;;;;;;24.22;78.15;98963.33;2221842;80;21410;-83
2022/08/13 08:21:32;;;;;;;14.53;13.13;;;;;;;24.17;77.31;98962.19;2221695;80;21310;-83
2022/08/13 08:24:32;;;;;;;13.83;12.53;;;;;;;24.20;77.10;98966.06;2221221;80;21003;-82
2022/08/13 08:27:33;;;;;;;15.35;13.93;;;;;;;24.00;76.29;98972.20;2221976;80;21326;-83
2022/08/13 08:30:33;;;;;;;15.50;12.82;;;;;;;23.62;77.10;98971.07;2222513;80;20979;-83
2022/08/13 08:33:33;;;;;;;14.18;12.78;;;;;;;23.57;78.49;98967.72;2222143;80;20932;-83
2022/08/13 08:36:36;;;;;;;16.77;12.73;;;;;;;23.55;78.19;98966.04;2222058;80;20901;-83
2022/08/13 08:42:53;;;;;;;16.00;12.58;;;;;;;23.78;77.71;98962.00;2220630;80;21000;-83
2022/08/13 08:45:53;;;;;;;14.83;13.43;;;;;;;23.88;77.19;98956.71;2219662;80;20983;-84
2022/08/13 08:48:54;;;;;;;13.08;11.78;;;;;;;23.95;76.90;98957.33;2220364;80;21000;-84
2022/08/13 08:51:54;;;;;;;13.62;12.23;;;;;;;23.88;76.08;98956.71;2221233;80;20996;-83
2022/08/13 08:54:55;;;;;;;12.88;11.68;;;;;;;23.99;76.22;98947.81;2222235;80;20936;-83
2022/08/13 08:57:56;;;;;;;13.43;11.80;;;;;;;24.05;75.21;98944.03;2222029;80;20991;-83
2022/08/13 09:00:56;;;;;;;14.58;13.15;;;;;;;24.07;74.49;98940.36;2221835;80;21007;-84
2022/08/13 09:03:56;;;;;;;14.18;12.10;;;;;;;24.12;75.22;98930.38;2220921;80;20975;-83
2022/08/13 09:06:59;;;;;;;12.63;11.00;;;;;;;24.23;73.95;98935.73;2221735;80;21343;-83
2022/08/13 09:10:00;;;;;;;12.43;10.98;;;;;;;24.24;74.43;98934.33;2222147;80;20952;-83
2022/08/13 09:13:03;;;;;;;13.10;11.73;;;;;;;24.27;74.29;98926.70;2222023;80;20979;-83
2022/08/13 09:16:04;;;;;;;12.37;11.35;;;;;;;24.08;74.61;98931.43;2221995;80;20967;-83
2022/08/13 09:19:04;;;;;;;12.70;11.50;;;;;;;23.99;74.60;98918.95;2217569;80;20989;-84
2022/08/13 09:22:04;;;;;;;13.85;12.45;;;;;;;23.72;74.87;98920.94;2212125;81;20964;-82
2022/08/13 09:25:05;;;;;;;13.53;12.35;;;;;;;23.50;75.91;98920.43;2212180;81;20975;-82
2022/08/13 09:28:07;;;;;;;13.13;12.03;;;;;;;23.39;76.33;98909.30;2212380;81;20948;-82
2022/08/13 09:31:07;;;;;;;12.90;11.48;;;;;;;23.49;76.63;98904.50;2211634;81;20975;-82
2022/08/13 09:34:06;;;;;;;13.35;12.00;;;;;;;23.37;76.66;98901.83;2211541;81;21011;-82
2022/08/13 09:37:07;;;;;;;14.25;12.35;;;;;;;23.62;77.03;98905.78;2211426;81;21031;-81
2022/08/13 09:40:07;;;;;;;15.38;11.75;;;;;;;23.81;76.62;98895.25;2210349;81;21291;-81
2022/08/13 09:43:07;;;;;;;13.45;12.03;;;;;;;24.13;75.68;98893.91;2212091;81;20944;-82
2022/08/13 09:46:11;;;;;;;14.07;12.68;;;;;;;24.25;74.58;98889.38;2212180;81;20984;-83
2022/08/13 09:49:12;;;;;;;;;;;;;;;24.59;74.54;98883.98;2214407;81;21047;-81
2022/08/13 09:52:12;;;;;;;14.47;13.05;;;;;;;24.99;73.62;98877.73;2211268;80;20089;-82
2022/08/13 09:55:12;;;;;;;14.75;13.28;;;;;;;25.14;72.91;98875.69;2210106;81;20995;-81
2022/08/13 09:58:13;;;;;;;14.73;13.35;;;;;;;25.21;71.94;98884.31;2210116;81;21031;-82
2022/08/13 10:01:13;;;;;;;13.83;12.60;;;;;;;25.35;71.16;98873.84;2209938;81;20997;-81
2022/08/13 10:04:18;;;;;;;15.38;14.03;;;;;;;25.52;70.21;98874.37;2209940;81;20988;-81
2022/08/13 10:07:14;;;;;;;15.10;13.80;;;;;;;25.45;69.25;98872.94;2208351;81;20957;-85
2022/08/13 10:10:16;;;;;;;13.48;12.40;;;;;;;24.90;69.84;98868.31;2186373;81;21478;-85
2022/08/13 10:13:16;;;;;;;12.88;11.60;;;;;;;24.84;70.65;98874.41;2209410;81;20996;-83
2022/08/13 10:16:17;;;;;;;16.32;12.05;;;;;;;25.00;70.82;98868.31;2209205;81;20999;-85
2022/08/13 10:19:18;;;;;;;12.40;11.30;;;;;;;25.46;70.42;98860.83;2210322;81;22031;-82
2022/08/13 10:22:18;;;;;;;10.75;9.93;;;;;;;25.58;67.83;98857.56;2210475;81;20944;-82
2022/08/13 10:25:19;;;;;;;11.22;10.23;;;;;;;25.46;68.83;98858.63;2210238;81;21065;-81
2022/08/13 10:28:19;;;;;;;10.68;9.78;;;;;;;25.36;69.03;98865.75;2210279;81;21396;-81
2022/08/13 10:31:21;;;;;;;11.20;10.20;;;;;;;25.26;69.15;98859.12;2211074;81;20948;-81
2022/08/13 10:34:22;;;;;;;11.00;10.08;;;;;;;25.24;69.12;98862.33;2211320;81;20960;-81
2022/08/13 10:37:21;;;;;;;9.93;9.13;;;;;;;25.18;69.16;98854.61;2212371;81;20937;-81
2022/08/13 10:40:22;;;;;;;10.58;9.68;;;;;;;25.43;69.39;98850.30;2212805;81;20984;-81
2022/08/13 10:43:21;;;;;;;9.98;9.08;;;;;;;25.56;69.03;98851.43;2213067;81;20898;-80
2022/08/13 10:46:22;;;;;;;11.20;10.10;;;;;;;25.80;68.84;98845.38;2212964;81;21272;-81
2022/08/13 10:49:22;;;;;;;10.55;9.53;;;;;;;26.01;68.39;98842.13;2213082;81;21448;-81
2022/08/13 10:52:24;;;;;;;11.03;10.03;;;;;;;26.17;67.73;98835.04;2213150;81;20889;-81
2022/08/13 10:55:24;;;;;;;11.15;10.00;;;;;;;26.37;66.08;98833.17;2212965;81;21303;-82
2022/08/13 10:58:23;;;;;;;11.38;10.25;;;;;;;26.35;65.08;98833.25;2213249;81;20960;-82
2022/08/13 11:01:24;;;;;;;11.22;10.05;;;;;;;26.41;65.81;98829.39;2212914;81;20948;-82
2022/08/13 11:04:26;;;;;;;11.30;10.32;;;;;;;26.58;65.20;98828.88;2212668;81;20936;-81
2022/08/13 11:07:25;;;;;;;11.10;9.95;;;;;;;26.56;64.02;98826.76;2211984;81;21930;-81
2022/08/13 11:10:25;;;;;;;10.60;9.60;;;;;;;26.48;64.01;98825.44;2211000;81;20957;-81
2022/08/13 11:13:25;;;;;;;10.43;9.43;;;;;;;26.31;64.36;98829.84;2212166;81;20920;-81
2022/08/13 11:19:37;;;;;;;11.12;10.03;;;;;;;26.12;65.01;98830.88;2216249;80;21070;-81
2022/08/13 11:22:36;;;;;;;10.93;9.78;;;;;;;26.20;64.75;98826.86;2220953;80;20979;-81
2022/08/13 11:25:36;;;;;;;13.30;10.82;;;;;;;26.31;65.45;98829.84;2222180;80;21035;-81
2022/08/13 11:28:36;;;;;;;11.30;10.20;;;;;;;26.55;64.55;98831.72;2222537;80;21334;-80
2022/08/13 11:31:37;;;;;;;11.05;9.80;;;;;;;26.89;64.04;98828.13;2222420;80;20944;-81
2022/08/13 11:34:37;;;;;;;14.95;9.83;;;;;;;27.23;63.33;98829.83;2222706;80;20980;-82
2022/08/13 11:37:38;;;;;;;11.35;9.53;;;;;;;27.28;62.34;98837.13;2222735;80;20948;-83
2022/08/13 11:40:38;;;;;;;9.50;8.80;;;;;;;27.28;62.04;98845.17;2222816;80;21335;-84
2022/08/13 11:43:38;;;;;;;10.40;9.60;;;;;;;27.16;62.67;98837.81;2223046;80;20940;-84
2022/08/13 11:46:41;;;;;;;10.63;9.63;;;;;;;27.20;62.26;98839.38;2217515;80;21012;-84
2022/08/13 11:49:41;;;;;;;10.55;9.53;;;;;;;27.25;61.20;98839.98;2222076;80;21354;-85
2022/08/13 11:52:42;;;;;;;9.90;9.10;;;;;;;26.89;61.58;98838.83;2222668;80;20925;-83
2022/08/13 11:55:42;;;;;;;9.73;8.98;;;;;;;26.88;62.89;98843.80;2222986;80;20924;-82
2022/08/13 11:58:42;;;;;;;9.95;9.05;;;;;;;27.04;62.17;98841.66;2222881;80;21316;-82
2022/08/13 12:01:43;;;;;;;10.10;9.20;;;;;;;27.06;62.01;98841.95;2222743;80;20927;-84
2022/08/13 12:04:43;;;;;;;11.68;9.33;;;;;;;26.79;61.37;98838.05;2222712;80;20893;-84
2022/08/13 12:07:44;;;;;;;10.53;9.70;;;;;;;26.50;62.14;98841.81;2222666;80;20924;-83
2022/08/13 12:10:44;;;;;;;10.90;9.50;;;;;;;26.31;62.92;98844.55;2222916;80;21325;-84
2022/08/13 12:13:44;;;;;;;11.35;10.25;;;;;;;26.36;63.30;98847.49;2222528;80;20885;-84
2022/08/13 12:16:45;;;;;;;11.40;10.30;;;;;;;26.43;62.93;98854.26;2223192;80;20897;-83
2022/08/13 12:19:45;;;;;;;11.53;10.43;;;;;;;26.47;63.12;98854.02;2222946;80;21414;-84
2022/08/13 12:22:46;;;;;;;14.23;10.30;;;;;;;26.46;63.04;98848.27;2223097;80;20935;-83
2022/08/13 12:25:46;;;;;;;11.03;9.98;;;;;;;26.44;62.93;98851.50;2222846;80;21028;-83
2022/08/13 12:28:46;;;;;;;11.73;10.55;;;;;;;26.40;63.40;98847.26;2222512;80;21354;-84
2022/08/13 12:31:47;;;;;;;11.30;10.10;;;;;;;26.32;63.21;98849.44;2223302;80;20932;-83
2022/08/13 12:34:47;;;;;;;12.80;11.40;;;;;;;26.32;63.86;98850.77;2223258;80;20932;-83
2022/08/13 12:37:48;;;;;;;11.95;10.98;;;;;;;26.14;63.79;98848.58;2222931;80;20914;-84
2022/08/13 12:40:48;;;;;;;12.00;10.90;;;;;;;25.89;64.22;98855.61;2223200;80;21311;-83
2022/08/13 12:43:48;;;;;;;11.78;10.78;;;;;;;25.72;64.20;98855.58;2223276;80;21308;-84
2022/08/13 12:46:49;;;;;;;13.18;12.07;;;;;;;25.45;64.78;98859.10;2223325;80;20925;-84
2022/08/13 12:49:49;;;;;;;13.13;11.83;;;;;;;25.20;65.46;98862.08;2222879;80;20901;-84
2022/08/13 12:52:50;;;;;;;13.48;12.00;;;;;;;24.94;66.49;98855.69;2223274;80;20929;-83
2022/08/13 12:55:50;;;;;;;13.00;11.80;;;;;;;24.71;66.95;98865.61;2223514;80;20963;-84
2022/08/13 12:58:50;;;;;;;14.10;12.25;;;;;;;24.58;67.38;98863.56;2223391;80;21039;-84
2022/08/13 13:01:54;;;;;;;14.20;12.80;;;;;;;24.36;68.20;98862.31;2223709;80;20952;-84
2022/08/13 13:04:55;;;;;;;15.15;13.68;;;;;;;24.30;69.17;98852.77;2223462;80;21000;-84
2022/08/13 13:07:56;;;;;;;13.90;12.60;;;;;;;24.21;69.39;98852.24;2223960;80;21024;-84
2022/08/13 13:10:56;;;;;;;14.23;12.93;;;;;;;24.23;69.91;98843.24;2224199;80;20951;-84
2022/08/13 13:13:56;;;;;;;14.55;13.32;;;;;;;24.30;70.11;98837.23;2223304;80;21026;-83
2022/08/13 13:16:57;;;;;;;14.33;13.08;;;;;;;24.40;69.58;98835.43;2223452;80;20904;-84
2022/08/13 13:19:58;;;;;;;14.73;13.32;;;;;;;24.51;69.60;98830.95;2223118;80;20964;-84
2022/08/13 13:22:59;;;;;;;14.50;13.13;;;;;;;24.77;69.60;98822.63;2223029;80;20929;-83
2022/08/13 13:25:59;;;;;;;14.50;13.10;;;;;;;25.11;68.74;98815.73;2223449;80;20940;-84
2022/08/13 13:28:59;;;;;;;16.62;15.10;;;;;;;25.54;67.95;98813.22;2222822;80;20897;-83
2022/08/13 13:32:03;;;;;;;16.27;14.87;;;;;;;25.90;66.30;98805.20;2222802;80;20929;-83
2022/08/13 13:35:02;;;;;;;16.57;15.03;;;;;;;25.85;65.01;98801.89;2222764;80;20939;-84
2022/08/13 13:38:02;;;;;;;14.33;13.10;;;;;;;25.83;64.86;98809.59;2222132;80;20987;-83
2022/08/13 13:41:03;;;;;;;15.08;13.75;;;;;;;25.87;65.53;98801.34;2222118;80;20932;-84
2022/08/13 13:44:03;;;;;;;14.47;13.08;;;;;;;26.12;64.63;98808.13;2222597;80;20917;-84
2022/08/13 13:47:04;;;;;;;13.68;12.47;;;;;;;26.28;64.07;98808.59;2222423;80;21299;-85
2022/08/13 13:50:04;;;;;;;15.45;13.93;;;;;;;26.44;63.43;98818.05;2222105;80;20937;-84
2022/08/13 13:53:05;;;;;;;14.40;13.10;;;;;;;26.42;62.72;98809.70;2222383;80;20924;-84
2022/08/13 13:56:05;;;;;;;13.55;12.45;;;;;;;26.36;62.68;98816.25;2222220;80;20940;-83
2022/08/13 13:59:05;;;;;;;13.48;12.28;;;;;;;26.41;63.65;98819.55;2221780;80;21024;-83
2022/08/13 14:02:06;;;;;;;13.38;12.10;;;;;;;26.55;63.23;98821.02;2222183;80;20933;-84
2022/08/13 14:05:06;;;;;;;19.77;13.13;;;;;;;26.36;62.56;98813.57;2222878;80;21063;-82
2022/08/13 14:08:07;;;;;;;13.78;12.25;;;;;;;25.84;63.37;98797.48;2223430;80;20940;-82
2022/08/13 14:11:07;;;;;;;14.05;12.75;;;;;;;25.72;64.74;98802.11;2223137;80;20908;-84